createdAt,value
2018-12-23T00:00:59.357Z,0
2018-12-23T00:02:00.051Z,0
2018-12-23T00:03:01.131Z,0
2018-12-23T00:04:01.547Z,0
2018-12-23T00:05:02.526Z,0
2018-12-23T00:05:14.567Z,0
2018-12-23T00:06:15.957Z,0
2018-12-23T00:07:16.653Z,0
2018-12-23T00:08:17.350Z,0
2018-12-23T00:09:17.771Z,0
2018-12-23T00:10:19.187Z,0
2018-12-23T00:11:19.331Z,0
2018-12-23T00:12:20.025Z,0
2018-12-23T00:13:20.719Z,0
2018-12-23T00:14:21.133Z,0
2018-12-23T00:15:22.109Z,0
2018-12-23T00:16:23.325Z,0
2018-12-23T00:17:24.023Z,0
2018-12-23T00:18:24.439Z,0
2018-12-23T00:19:25.964Z,0
2018-12-23T00:20:25.932Z,0
2018-12-23T00:21:26.356Z,0
2018-12-23T00:22:27.048Z,0
2018-12-23T00:23:27.466Z,0
2018-12-23T00:24:28.166Z,0
2018-12-23T00:25:28.861Z,0
2018-12-23T00:26:29.687Z,0
2018-12-23T00:27:30.385Z,0
2018-12-23T00:28:31.637Z,0
2018-12-23T00:29:31.782Z,0
2018-12-23T00:30:33.589Z,0
2018-12-23T00:31:33.576Z,0
2018-12-23T00:32:34.551Z,0
2018-12-23T00:33:34.979Z,0
2018-12-23T00:34:35.677Z,0
2018-12-23T00:35:36.647Z,0
2018-12-23T00:36:38.029Z,0
2018-12-23T00:37:39.381Z,0
2018-12-23T00:38:39.894Z,0
2018-12-23T00:39:40.863Z,0
2018-12-23T00:40:41.078Z,0
2018-12-23T00:41:42.336Z,0
2018-12-23T00:42:42.476Z,0
2018-12-23T00:43:43.449Z,0
2018-12-23T00:44:44.425Z,0
2018-12-23T00:45:45.456Z,0
2018-12-23T00:46:45.596Z,0
2018-12-23T00:47:46.012Z,0
2018-12-23T00:48:47.084Z,0
2018-12-23T00:49:47.781Z,0
2018-12-23T00:50:48.921Z,0
2018-12-23T00:51:50.065Z,0
2018-12-23T00:52:51.481Z,0
2018-12-23T00:53:52.173Z,0
2018-12-23T00:54:53.311Z,0
2018-12-23T00:55:54.726Z,0
2018-12-23T00:56:55.555Z,0
2018-12-23T00:57:56.022Z,0
2018-12-23T00:58:57.437Z,0
2018-12-23T00:59:58.411Z,0
2018-12-23T01:00:58.830Z,0
2018-12-23T01:01:59.524Z,0
2018-12-23T01:02:59.943Z,0
2018-12-23T01:04:01.362Z,0
2018-12-23T01:05:02.055Z,0
2018-12-23T01:06:02.476Z,0
2018-12-23T01:07:03.592Z,0
2018-12-23T01:08:05.381Z,0
2018-12-23T01:09:05.522Z,0
2018-12-23T01:10:05.936Z,0
2018-12-23T01:11:06.632Z,0
2018-12-23T01:12:07.329Z,0
2018-12-23T01:13:07.746Z,0
2018-12-23T01:14:09.635Z,0
2018-12-23T01:15:09.053Z,0
2018-12-23T01:16:09.866Z,0
2018-12-23T01:17:10.137Z,0
2018-12-23T01:18:10.559Z,0
2018-12-23T01:19:12.037Z,0
2018-12-23T01:20:13.565Z,0
2018-12-23T01:21:13.984Z,0
2018-12-23T01:22:14.400Z,0
2018-12-23T01:23:15.091Z,0
2018-12-23T01:24:16.232Z,0
2018-12-23T01:25:17.767Z,0
2018-12-23T01:26:29.277Z,0
2018-12-23T01:27:30.452Z,0
2018-12-23T01:28:30.579Z,0
2018-12-23T01:29:31.266Z,0
2018-12-23T01:30:32.228Z,0
2018-12-23T01:31:32.637Z,0
2018-12-23T01:32:34.242Z,0
2018-12-23T01:33:34.929Z,0
2018-12-23T01:34:39.375Z,0
2018-12-23T01:35:40.336Z,0
2018-12-23T01:36:40.466Z,0
2018-12-23T01:37:40.997Z,0
2018-12-23T01:38:42.517Z,0
2018-12-23T01:39:42.476Z,0
2018-12-23T01:40:42.606Z,0
2018-12-23T01:41:44.570Z,0
2018-12-23T01:42:43.980Z,0
2018-12-23T01:43:45.107Z,0
2018-12-23T01:44:46.236Z,0
2018-12-23T01:45:47.918Z,0
2018-12-23T01:46:48.605Z,0
2018-12-23T01:47:48.471Z,0
2018-12-23T01:48:49.152Z,0
2018-12-23T01:49:49.559Z,0
2018-12-23T01:50:50.522Z,0
2018-12-23T01:51:50.486Z,0
2018-12-23T01:52:51.170Z,0
2018-12-23T01:53:51.856Z,0
2018-12-23T01:54:52.257Z,0
2018-12-23T01:55:52.939Z,0
2018-12-23T01:56:53.625Z,0
2018-12-23T01:57:54.434Z,0
2018-12-23T01:58:55.395Z,0
2018-12-23T01:59:55.907Z,0
2018-12-23T02:00:56.654Z,0
2018-12-23T02:01:57.062Z,0
2018-12-23T02:02:57.469Z,0
2018-12-23T02:03:58.155Z,0
2018-12-23T02:04:58.559Z,0
2018-12-23T02:05:59.245Z,0
2018-12-23T02:06:59.940Z,0
2018-12-23T02:08:01.049Z,0
2018-12-23T02:09:02.008Z,0
2018-12-23T02:10:02.692Z,0
2018-12-23T02:11:03.382Z,0
2018-12-23T02:12:03.338Z,0
2018-12-23T02:13:03.468Z,0
2018-12-23T02:14:04.153Z,0
2018-12-23T02:15:05.116Z,0
2018-12-23T02:16:05.524Z,0
2018-12-23T02:17:06.551Z,0
2018-12-23T02:18:07.093Z,0
2018-12-23T02:19:07.777Z,0
2018-12-23T02:20:08.183Z,0
2018-12-23T02:21:08.409Z,0
2018-12-23T02:22:09.102Z,0
2018-12-23T02:23:10.176Z,0
2018-12-23T02:24:11.415Z,0
2018-12-23T02:25:12.656Z,0
2018-12-23T02:26:12.632Z,0
2018-12-23T02:27:12.868Z,0
2018-12-23T02:28:14.238Z,0
2018-12-23T02:29:14.645Z,0
2018-12-23T02:30:15.055Z,0
2018-12-23T02:31:15.665Z,0
2018-12-23T02:32:16.626Z,0
2018-12-23T02:33:16.883Z,0
2018-12-23T02:34:17.572Z,0
2018-12-23T02:35:17.991Z,0
2018-12-23T02:36:19.543Z,0
2018-12-23T02:37:19.949Z,0
2018-12-23T02:38:20.912Z,0
2018-12-23T02:39:21.113Z,0
2018-12-23T02:40:21.521Z,0
2018-12-23T02:41:35.272Z,0
2018-12-23T02:42:36.938Z,0
2018-12-23T02:43:37.656Z,0
2018-12-23T02:44:38.619Z,0
2018-12-23T02:45:39.303Z,0
2018-12-23T02:46:39.996Z,0
2018-12-23T02:47:40.823Z,0
2018-12-23T02:48:41.227Z,0
2018-12-23T02:49:41.633Z,0
2018-12-23T02:50:43.326Z,0
2018-12-23T02:51:43.737Z,0
2018-12-23T02:52:45.660Z,0
2018-12-23T02:53:45.346Z,0
2018-12-23T02:54:45.753Z,0
2018-12-23T02:55:46.721Z,0
2018-12-23T02:56:46.411Z,0
2018-12-23T02:57:47.420Z,0
2018-12-23T02:58:48.103Z,0
2018-12-23T02:59:48.786Z,0
2018-12-23T03:00:50.753Z,0
2018-12-23T03:01:51.441Z,0
2018-12-23T03:02:52.566Z,0
2018-12-23T03:03:53.806Z,0
2018-12-23T03:04:54.767Z,0
2018-12-23T03:05:55.176Z,0
2018-12-23T03:06:08.184Z,0
2018-12-23T03:07:08.294Z,0
2018-12-23T03:08:08.977Z,0
2018-12-23T03:09:09.666Z,0
2018-12-23T03:10:10.915Z,0
2018-12-23T03:11:10.877Z,0
2018-12-23T03:12:12.584Z,0
2018-12-23T03:13:12.870Z,0
2018-12-23T03:14:14.663Z,0
2018-12-23T03:15:14.780Z,0
2018-12-23T03:16:15.844Z,0
2018-12-23T03:17:15.659Z,0
2018-12-23T03:18:17.359Z,0
2018-12-23T03:19:18.039Z,0
2018-12-23T03:20:18.722Z,0
2018-12-23T03:21:19.402Z,0
2018-12-23T03:22:20.933Z,0
2018-12-23T03:23:21.339Z,0
2018-12-23T03:24:22.029Z,0
2018-12-23T03:25:22.454Z,0
2018-12-23T03:26:24.271Z,0
2018-12-23T03:27:24.497Z,0
2018-12-23T03:28:25.500Z,0
2018-12-23T03:29:26.469Z,0
2018-12-23T03:30:27.156Z,0
2018-12-23T03:31:28.245Z,0
2018-12-23T03:32:28.920Z,0
2018-12-23T03:33:28.603Z,0
2018-12-23T03:34:29.348Z,0
2018-12-23T03:35:29.781Z,0
2018-12-23T03:36:30.462Z,0
2018-12-23T03:37:32.157Z,0
2018-12-23T03:38:32.844Z,0
2018-12-23T03:39:33.084Z,0
2018-12-23T03:40:34.050Z,0
2018-12-23T03:41:35.017Z,0
2018-12-23T03:42:35.707Z,0
2018-12-23T03:43:36.120Z,0
2018-12-23T03:44:37.916Z,0
2018-12-23T03:45:38.053Z,0
2018-12-23T03:46:39.078Z,0
2018-12-23T03:47:40.282Z,0
2018-12-23T03:48:41.243Z,0
2018-12-23T03:49:41.207Z,0
2018-12-23T03:50:41.616Z,0
2018-12-23T03:51:42.022Z,0
2018-12-23T03:52:43.279Z,0
2018-12-23T03:53:44.078Z,0
2018-12-23T03:54:44.688Z,0
2018-12-23T03:55:45.927Z,0
2018-12-23T03:56:45.892Z,0
2018-12-23T03:57:46.287Z,0
2018-12-23T03:58:46.972Z,0
2018-12-23T03:59:48.487Z,0
2018-12-23T04:00:48.449Z,0
2018-12-23T04:01:48.585Z,0
2018-12-23T04:02:49.269Z,0
2018-12-23T04:03:50.233Z,0
2018-12-23T04:04:51.193Z,0
2018-12-23T04:05:52.155Z,0
2018-12-23T04:06:53.114Z,0
2018-12-23T04:07:54.599Z,0
2018-12-23T04:08:54.561Z,0
2018-12-23T04:09:55.245Z,0
2018-12-23T04:10:54.930Z,0
2018-12-23T04:11:56.353Z,0
2018-12-23T04:12:57.971Z,0
2018-12-23T04:13:58.486Z,0
2018-12-23T04:14:58.612Z,0
2018-12-23T04:16:00.036Z,0
2018-12-23T04:17:00.449Z,0
2018-12-23T04:18:01.833Z,0
2018-12-23T04:19:02.792Z,0
2018-12-23T04:20:03.224Z,0
2018-12-23T04:21:04.744Z,0
2018-12-23T04:22:04.796Z,0
2018-12-23T04:23:05.483Z,0
2018-12-23T04:24:06.818Z,0
2018-12-23T04:25:06.777Z,0
2018-12-23T04:26:08.018Z,0
2018-12-23T04:27:08.421Z,0
2018-12-23T04:28:09.050Z,0
2018-12-23T04:29:09.456Z,0
2018-12-23T04:30:10.976Z,0
2018-12-23T04:31:11.769Z,0
2018-12-23T04:32:12.013Z,0
2018-12-23T04:33:12.421Z,0
2018-12-23T04:34:13.112Z,0
2018-12-23T04:35:14.362Z,0
2018-12-23T04:36:15.332Z,0
2018-12-23T04:37:16.298Z,0
2018-12-23T04:38:16.833Z,0
2018-12-23T04:39:18.080Z,0
2018-12-23T04:40:18.819Z,0
2018-12-23T04:41:20.059Z,0
2018-12-23T04:42:20.748Z,0
2018-12-23T04:43:21.734Z,0
2018-12-23T04:44:22.790Z,0
2018-12-23T04:45:24.308Z,0
2018-12-23T04:46:24.553Z,0
2018-12-23T04:47:25.787Z,0
2018-12-23T04:48:26.199Z,0
2018-12-23T04:49:26.908Z,0
2018-12-23T04:50:27.978Z,0
2018-12-23T04:51:28.394Z,0
2018-12-23T04:52:29.086Z,0
2018-12-23T04:53:30.064Z,0
2018-12-23T04:54:31.024Z,0
2018-12-23T04:55:32.382Z,0
2018-12-23T04:56:33.068Z,0
2018-12-23T04:57:34.591Z,0
2018-12-23T04:58:35.247Z,0
2018-12-23T04:59:35.668Z,0
2018-12-23T05:00:36.362Z,0
2018-12-23T05:01:36.771Z,0
2018-12-23T05:02:37.010Z,0
2018-12-23T05:03:49.331Z,0
2018-12-23T05:04:49.836Z,0
2018-12-23T05:05:50.537Z,0
2018-12-23T05:06:51.499Z,0
2018-12-23T05:07:51.903Z,0
2018-12-23T05:08:52.888Z,0
2018-12-23T05:09:53.573Z,0
2018-12-23T05:10:54.923Z,0
2018-12-23T05:11:56.167Z,0
2018-12-23T05:12:56.868Z,0
2018-12-23T05:13:58.121Z,0
2018-12-23T05:14:59.236Z,0
2018-12-23T05:15:59.644Z,0
2018-12-23T05:17:00.106Z,0
2018-12-23T05:18:02.066Z,0
2018-12-23T05:19:02.599Z,0
2018-12-23T05:20:02.729Z,0
2018-12-23T05:21:03.133Z,0
2018-12-23T05:22:04.263Z,0
2018-12-23T05:23:05.486Z,0
2018-12-23T05:24:05.892Z,0
2018-12-23T05:25:06.702Z,0
2018-12-23T05:26:07.675Z,0
2018-12-23T05:27:07.801Z,0
2018-12-23T05:28:08.761Z,0
2018-12-23T05:29:09.283Z,0
2018-12-23T05:30:10.243Z,0
2018-12-23T05:31:11.231Z,0
2018-12-23T05:32:11.191Z,0
2018-12-23T05:33:11.603Z,0
2018-12-23T05:34:12.567Z,0
2018-12-23T05:35:12.404Z,0
2018-12-23T05:36:13.533Z,0
2018-12-23T05:37:14.510Z,0
2018-12-23T05:38:15.469Z,0
2018-12-23T05:39:16.747Z,0
2018-12-23T05:40:17.151Z,0
2018-12-23T05:41:17.842Z,0
2018-12-23T05:42:19.522Z,0
2018-12-23T05:43:20.317Z,0
2018-12-23T05:44:20.837Z,0
2018-12-23T05:45:21.493Z,0
2018-12-23T05:46:22.008Z,0
2018-12-23T05:47:22.414Z,0
2018-12-23T05:48:23.376Z,0
2018-12-23T05:49:24.612Z,0
2018-12-23T05:50:25.092Z,0
2018-12-23T05:51:25.775Z,0
2018-12-23T05:52:26.460Z,0
2018-12-23T05:53:26.589Z,0
2018-12-23T05:54:27.718Z,0
2018-12-23T05:55:28.287Z,0
2018-12-23T05:56:29.344Z,0
2018-12-23T05:57:30.028Z,0
2018-12-23T05:58:30.710Z,0
2018-12-23T05:59:31.399Z,0
2018-12-23T06:00:32.365Z,0
2018-12-23T06:01:33.326Z,0
2018-12-23T06:02:35.013Z,0
2018-12-23T06:03:35.782Z,0
2018-12-23T06:04:36.189Z,0
2018-12-23T06:05:37.299Z,0
2018-12-23T06:06:37.705Z,0
2018-12-23T06:07:38.207Z,0
2018-12-23T06:08:38.613Z,0
2018-12-23T06:09:40.022Z,0
2018-12-23T06:10:40.983Z,0
2018-12-23T06:11:41.669Z,0
2018-12-23T06:12:42.350Z,0
2018-12-23T06:13:43.031Z,0
2018-12-23T06:14:43.715Z,0
2018-12-23T06:15:44.253Z,0
2018-12-23T06:16:45.493Z,0
2018-12-23T06:17:46.280Z,0
2018-12-23T06:18:47.249Z,0
2018-12-23T06:19:47.933Z,0
2018-12-23T06:20:49.335Z,0
2018-12-23T06:21:50.018Z,0
2018-12-23T06:22:51.524Z,0
2018-12-23T06:23:52.220Z,0
2018-12-23T06:24:53.665Z,0
2018-12-23T06:25:54.157Z,0
2018-12-23T06:26:54.840Z,0
2018-12-23T06:27:56.079Z,0
2018-12-23T06:28:56.768Z,0
2018-12-23T06:29:57.173Z,0
2018-12-23T06:30:57.855Z,0
2018-12-23T06:31:59.097Z,0
2018-12-23T06:32:59.782Z,0
2018-12-23T06:34:01.464Z,0
2018-12-23T06:35:02.173Z,0
2018-12-23T06:36:03.108Z,0
2018-12-23T06:37:16.271Z,0
2018-12-23T06:38:15.768Z,0
2018-12-23T06:39:16.730Z,0
2018-12-23T06:40:17.413Z,0
2018-12-23T06:41:18.094Z,0
2018-12-23T06:42:18.781Z,0
2018-12-23T06:43:19.743Z,0
2018-12-23T06:44:19.870Z,0
2018-12-23T06:45:21.623Z,4
2018-12-23T06:46:21.865Z,4
2018-12-23T06:47:22.824Z,4
2018-12-23T06:48:23.909Z,4
2018-12-23T06:49:24.317Z,0
2018-12-23T06:50:25.749Z,0
2018-12-23T06:51:26.231Z,4
2018-12-23T06:52:27.468Z,4
2018-12-23T06:53:28.154Z,8
2018-12-23T06:54:28.373Z,4
2018-12-23T06:55:29.337Z,8
2018-12-23T06:56:30.022Z,8
2018-12-23T06:57:30.707Z,4
2018-12-23T06:58:31.520Z,4
2018-12-23T06:59:32.202Z,8
2018-12-23T07:00:33.163Z,8
2018-12-23T07:01:33.847Z,8
2018-12-23T07:02:33.978Z,12
2018-12-23T07:03:34.972Z,12
2018-12-23T07:04:36.397Z,12
2018-12-23T07:05:36.804Z,12
2018-12-23T07:06:37.215Z,16
2018-12-23T07:07:37.897Z,16
2018-12-23T07:08:39.285Z,12
2018-12-23T07:09:40.247Z,16
2018-12-23T07:10:40.933Z,16
2018-12-23T07:11:41.063Z,16
2018-12-23T07:12:42.677Z,16
2018-12-23T07:13:42.428Z,16
2018-12-23T07:14:43.113Z,20
2018-12-23T07:15:43.522Z,20
2018-12-23T07:16:44.208Z,20
2018-12-23T07:17:44.698Z,24
2018-12-23T07:18:45.869Z,24
2018-12-23T07:19:46.276Z,24
2018-12-23T07:20:46.984Z,32
2018-12-23T07:21:47.665Z,36
2018-12-23T07:22:48.077Z,36
2018-12-23T07:23:49.133Z,44
2018-12-23T07:24:50.113Z,48
2018-12-23T07:25:50.243Z,52
2018-12-23T07:26:51.208Z,56
2018-12-23T07:27:51.616Z,56
2018-12-23T07:28:52.448Z,52
2018-12-23T07:29:53.422Z,56
2018-12-23T07:30:53.828Z,60
2018-12-23T07:31:54.796Z,72
2018-12-23T07:32:55.756Z,88
2018-12-23T07:33:56.165Z,88
2018-12-23T07:34:56.668Z,96
2018-12-23T07:35:57.081Z,112
2018-12-23T07:36:58.496Z,128
2018-12-23T07:37:59.178Z,140
2018-12-23T07:38:59.716Z,136
2018-12-23T07:40:00.403Z,140
2018-12-23T07:41:00.889Z,144
2018-12-23T07:42:01.126Z,156
2018-12-23T07:43:01.915Z,160
2018-12-23T07:44:02.606Z,164
2018-12-23T07:45:03.617Z,172
2018-12-23T07:46:03.022Z,176
2018-12-23T07:47:03.249Z,188
2018-12-23T07:48:04.942Z,208
2018-12-23T07:49:05.870Z,200
2018-12-23T07:50:06.282Z,212
2018-12-23T07:51:06.967Z,196
2018-12-23T07:52:07.656Z,188
2018-12-23T07:53:09.345Z,220
2018-12-23T07:54:09.755Z,224
2018-12-23T07:55:10.161Z,244
2018-12-23T07:56:10.847Z,288
2018-12-23T07:57:11.255Z,248
2018-12-23T07:58:11.221Z,224
2018-12-23T07:59:12.106Z,232
2018-12-23T08:00:12.811Z,236
2018-12-23T08:01:13.058Z,220
2018-12-23T08:02:13.796Z,216
2018-12-23T08:03:14.758Z,236
2018-12-23T08:04:14.450Z,272
2018-12-23T08:05:15.165Z,328
2018-12-23T08:06:16.941Z,376
2018-12-23T08:07:17.350Z,384
2018-12-23T08:08:17.759Z,412
2018-12-23T08:09:18.849Z,448
2018-12-23T08:10:18.981Z,448
2018-12-23T08:11:19.944Z,472
2018-12-23T08:12:20.079Z,524
2018-12-23T08:13:21.767Z,516
2018-12-23T08:14:22.457Z,568
2018-12-23T08:15:23.423Z,612
2018-12-23T08:16:23.388Z,680
2018-12-23T08:17:24.075Z,776
2018-12-23T08:18:24.207Z,840
2018-12-23T08:19:24.466Z,912
2018-12-23T08:20:25.154Z,976
2018-12-23T08:21:26.323Z,968
2018-12-23T08:22:27.833Z,916
2018-12-23T08:23:28.799Z,840
2018-12-23T08:24:29.210Z,792
2018-12-23T08:25:41.948Z,832
2018-12-23T08:26:43.058Z,792
2018-12-23T08:27:44.022Z,728
2018-12-23T08:28:44.429Z,672
2018-12-23T08:29:44.842Z,624
2018-12-23T08:30:45.807Z,560
2018-12-23T08:31:48.633Z,548
2018-12-23T08:32:46.754Z,544
2018-12-23T08:33:47.766Z,500
2018-12-23T08:34:48.179Z,480
2018-12-23T08:35:49.869Z,432
2018-12-23T08:36:50.702Z,400
2018-12-23T08:37:51.111Z,388
2018-12-23T08:38:52.355Z,424
2018-12-23T08:39:52.042Z,424
2018-12-23T08:40:53.007Z,396
2018-12-23T08:41:53.970Z,400
2018-12-23T08:42:54.379Z,432
2018-12-23T08:43:56.065Z,564
2018-12-23T08:44:56.297Z,684
2018-12-23T08:45:56.789Z,840
2018-12-23T08:46:57.609Z,820
2018-12-23T08:47:58.376Z,728
2018-12-23T08:48:59.063Z,688
2018-12-23T08:50:01.470Z,684
2018-12-23T08:51:01.607Z,732
2018-12-23T08:52:02.570Z,760
2018-12-23T08:53:02.706Z,768
2018-12-23T08:54:03.395Z,776
2018-12-23T08:55:04.370Z,876
2018-12-23T08:56:04.501Z,896
2018-12-23T08:57:05.057Z,952
2018-12-23T08:58:06.024Z,1032
2018-12-23T08:59:06.157Z,1120
2018-12-23T09:00:07.132Z,1344
2018-12-23T09:01:09.099Z,1364
2018-12-23T09:02:09.235Z,1424
2018-12-23T09:03:18.612Z,1336
2018-12-23T09:03:22.254Z,1340
2018-12-23T09:04:23.367Z,1596
2018-12-23T09:05:24.176Z,1596
2018-12-23T09:06:24.862Z,1436
2018-12-23T09:07:26.277Z,1256
2018-12-23T09:08:27.235Z,1144
2018-12-23T09:09:27.489Z,1100
2018-12-23T09:10:28.182Z,1212
2018-12-23T09:11:29.312Z,1264
2018-12-23T09:12:30.368Z,1224
2018-12-23T09:13:30.778Z,1152
2018-12-23T09:14:31.885Z,1156
2018-12-23T09:15:32.848Z,1184
2018-12-23T09:16:32.975Z,1124
2018-12-23T09:17:33.444Z,1000
2018-12-23T09:18:34.575Z,972
2018-12-23T09:19:35.996Z,1060
2018-12-23T09:20:36.515Z,1016
2018-12-23T09:21:37.204Z,980
2018-12-23T09:22:37.637Z,984
2018-12-23T09:23:38.059Z,996
2018-12-23T09:24:40.498Z,1132
2018-12-23T09:25:40.520Z,1292
2018-12-23T09:26:40.927Z,1468
2018-12-23T09:27:41.621Z,1504
2018-12-23T09:28:42.310Z,1568
2018-12-23T09:29:42.998Z,1776
2018-12-23T09:30:43.971Z,1884
2018-12-23T09:31:44.475Z,1924
2018-12-23T09:32:44.942Z,1868
2018-12-23T09:33:45.907Z,1852
2018-12-23T09:34:47.277Z,1944
2018-12-23T09:35:48.245Z,1852
2018-12-23T09:36:50.069Z,1784
2018-12-23T09:37:50.483Z,1836
2018-12-23T09:38:51.453Z,1728
2018-12-23T09:39:52.603Z,1664
2018-12-23T09:40:53.629Z,1744
2018-12-23T09:41:53.763Z,1788
2018-12-23T09:42:55.179Z,1936
2018-12-23T09:43:55.589Z,2020
2018-12-23T09:44:56.208Z,2012
2018-12-23T09:45:56.623Z,2008
2018-12-23T09:46:57.690Z,1992
2018-12-23T09:47:58.660Z,1956
2018-12-23T09:48:58.792Z,1936
2018-12-23T09:50:00.215Z,2004
2018-12-23T09:51:00.626Z,1992
2018-12-23T09:52:01.046Z,2044
2018-12-23T09:53:02.462Z,2156
2018-12-23T09:54:03.460Z,2156
2018-12-23T09:55:04.003Z,1952
2018-12-23T09:56:04.475Z,2016
2018-12-23T09:57:05.726Z,1976
2018-12-23T09:58:06.163Z,1904
2018-12-23T09:59:07.409Z,2016
2018-12-23T10:00:08.395Z,1916
2018-12-23T10:01:08.798Z,2048
2018-12-23T10:02:09.933Z,2128
2018-12-23T10:03:11.638Z,2120
2018-12-23T10:04:11.796Z,2276
2018-12-23T10:05:12.917Z,2216
2018-12-23T10:06:13.983Z,2440
2018-12-23T10:07:14.953Z,2472
2018-12-23T10:08:14.649Z,2440
2018-12-23T10:09:15.618Z,2416
2018-12-23T10:10:16.036Z,2416
2018-12-23T10:11:16.444Z,2500
2018-12-23T10:12:17.626Z,2524
2018-12-23T10:13:18.596Z,2588
2018-12-23T10:14:19.565Z,2584
2018-12-23T10:15:20.948Z,2572
2018-12-23T10:16:21.416Z,2536
2018-12-23T10:17:22.106Z,2472
2018-12-23T10:18:22.522Z,2460
2018-12-23T10:19:22.932Z,2332
2018-12-23T10:20:23.710Z,2368
2018-12-23T10:21:24.401Z,2400
2018-12-23T10:22:25.095Z,2532
2018-12-23T10:23:25.228Z,2588
2018-12-23T10:24:26.641Z,2488
2018-12-23T10:25:28.136Z,2504
2018-12-23T10:26:27.827Z,2648
2018-12-23T10:27:29.366Z,2820
2018-12-23T10:28:29.057Z,2936
2018-12-23T10:29:30.784Z,2940
2018-12-23T10:30:31.478Z,2888
2018-12-23T10:31:31.609Z,2900
2018-12-23T10:32:32.386Z,2956
2018-12-23T10:33:33.438Z,3332
2018-12-23T10:34:35.281Z,3484
2018-12-23T10:35:35.381Z,3780
2018-12-23T10:36:35.520Z,4136
2018-12-23T10:37:36.207Z,4236
2018-12-23T10:38:37.175Z,4612
2018-12-23T10:39:37.588Z,5768
2018-12-23T10:40:38.555Z,5936
2018-12-23T10:41:38.247Z,4664
2018-12-23T10:42:39.213Z,4460
2018-12-23T10:43:39.624Z,3988
2018-12-23T10:44:40.759Z,3916
2018-12-23T10:45:41.303Z,3860
2018-12-23T10:46:42.549Z,4324
2018-12-23T10:47:43.051Z,4316
2018-12-23T10:48:44.463Z,4420
2018-12-23T10:49:45.161Z,4816
2018-12-23T10:50:45.856Z,3868
2018-12-23T10:51:47.543Z,3580
2018-12-23T10:52:48.008Z,3984
2018-12-23T10:53:48.141Z,3672
2018-12-23T10:54:49.560Z,3788
2018-12-23T10:55:50.485Z,4028
2018-12-23T10:56:50.642Z,4032
2018-12-23T10:57:51.777Z,5080
2018-12-23T10:58:53.469Z,4308
2018-12-23T10:59:53.166Z,3952
2018-12-23T11:00:54.575Z,4120
2018-12-23T11:01:55.989Z,5568
2018-12-23T11:02:56.678Z,3184
2018-12-23T11:03:56.817Z,2916
2018-12-23T11:04:57.951Z,2908
2018-12-23T11:05:58.491Z,2680
2018-12-23T11:07:00.465Z,2608
2018-12-23T11:08:01.444Z,2804
2018-12-23T11:09:02.144Z,2964
2018-12-23T11:10:04.319Z,3388
2018-12-23T11:11:05.019Z,5304
2018-12-23T11:12:05.349Z,6140
2018-12-23T11:13:05.764Z,5708
2018-12-23T11:14:07.180Z,4556
2018-12-23T11:15:08.589Z,4424
2018-12-23T11:16:08.866Z,4664
2018-12-23T11:17:09.564Z,8400
2018-12-23T11:18:09.973Z,7508
2018-12-23T11:19:10.664Z,9216
2018-12-23T11:20:12.633Z,8788
2018-12-23T11:21:12.095Z,8844
2018-12-23T11:22:12.789Z,8920
2018-12-23T11:23:13.690Z,4956
2018-12-23T11:24:14.472Z,4876
2018-12-23T11:25:14.883Z,5016
2018-12-23T11:26:15.722Z,5712
2018-12-23T11:27:17.137Z,4184
2018-12-23T11:28:17.554Z,5664
2018-12-23T11:29:18.248Z,4108
2018-12-23T11:30:19.754Z,3796
2018-12-23T11:31:20.174Z,3200
2018-12-23T11:32:21.698Z,3184
2018-12-23T11:33:21.404Z,2892
2018-12-23T11:34:22.371Z,2596
2018-12-23T11:35:22.510Z,2540
2018-12-23T11:36:23.341Z,2516
2018-12-23T11:37:23.865Z,2380
2018-12-23T11:38:25.287Z,2304
2018-12-23T11:39:25.980Z,2272
2018-12-23T11:40:26.951Z,2196
2018-12-23T11:41:26.918Z,2060
2018-12-23T11:42:27.072Z,1944
2018-12-23T11:43:28.486Z,1892
2018-12-23T11:44:29.178Z,1884
2018-12-23T11:45:31.426Z,1812
2018-12-23T11:46:30.986Z,1728
2018-12-23T11:47:31.963Z,1620
2018-12-23T11:48:32.384Z,1536
2018-12-23T11:49:33.792Z,1436
2018-12-23T11:50:34.485Z,1324
2018-12-23T11:51:35.178Z,1232
2018-12-23T11:52:35.311Z,1212
2018-12-23T11:53:35.724Z,1204
2018-12-23T11:54:37.138Z,1204
2018-12-23T11:55:38.831Z,1120
2018-12-23T11:56:39.671Z,1088
2018-12-23T11:57:40.643Z,1028
2018-12-23T11:58:40.779Z,1008
2018-12-23T11:59:41.749Z,1008
2018-12-23T12:00:42.212Z,1060
2018-12-23T12:01:42.642Z,1132
2018-12-23T12:02:43.328Z,1272
2018-12-23T12:03:44.301Z,1332
2018-12-23T12:04:44.713Z,1368
2018-12-23T12:05:45.957Z,1364
2018-12-23T12:06:46.499Z,1396
2018-12-23T12:07:46.916Z,1380
2018-12-23T12:08:48.609Z,1364
2018-12-23T12:09:49.347Z,1364
2018-12-23T12:10:49.761Z,1396
2018-12-23T12:11:52.634Z,1368
2018-12-23T12:12:52.769Z,1328
2018-12-23T12:13:54.184Z,1348
2018-12-23T12:14:55.319Z,1392
2018-12-23T12:15:56.343Z,1452
2018-12-23T12:16:57.159Z,1564
2018-12-23T12:17:57.306Z,1656
2018-12-23T12:18:58.440Z,1712
2018-12-23T12:19:59.140Z,1668
2018-12-23T12:20:59.875Z,1632
2018-12-23T12:22:00.839Z,1660
2018-12-23T12:23:00.974Z,1696
2018-12-23T12:24:01.941Z,1724
2018-12-23T12:25:02.635Z,1872
2018-12-23T12:26:03.366Z,2036
2018-12-23T12:27:03.903Z,2168
2018-12-23T12:28:04.877Z,2328
2018-12-23T12:29:05.013Z,2612
2018-12-23T12:30:06.703Z,2800
2018-12-23T12:31:07.115Z,2764
2018-12-23T12:32:08.527Z,2608
2018-12-23T12:33:09.775Z,2472
2018-12-23T12:34:10.191Z,2496
2018-12-23T12:35:11.161Z,2616
2018-12-23T12:36:11.577Z,2592
2018-12-23T12:37:12.407Z,2644
2018-12-23T12:38:13.539Z,2728
2018-12-23T12:39:14.674Z,2692
2018-12-23T12:40:16.365Z,2528
2018-12-23T12:41:17.057Z,2376
2018-12-23T12:42:17.745Z,2180
2018-12-23T12:43:19.156Z,2008
2018-12-23T12:44:22.333Z,1952
2018-12-23T12:45:20.749Z,1844
2018-12-23T12:46:21.996Z,1748
2018-12-23T12:47:22.529Z,1756
2018-12-23T12:48:22.940Z,1784
2018-12-23T12:49:23.590Z,1964
2018-12-23T12:50:23.810Z,1824
2018-12-23T12:51:25.233Z,1824
2018-12-23T12:52:25.923Z,1728
2018-12-23T12:53:26.609Z,1676
2018-12-23T12:54:27.019Z,1648
2018-12-23T12:55:27.432Z,1628
2018-12-23T12:56:28.236Z,1540
2018-12-23T12:57:28.049Z,1424
2018-12-23T12:58:28.762Z,1348
2018-12-23T12:59:28.909Z,1284
2018-12-23T13:00:30.320Z,1204
2018-12-23T13:01:30.733Z,1124
2018-12-23T13:02:30.864Z,1096
2018-12-23T13:03:31.554Z,1104
2018-12-23T13:04:32.336Z,1108
2018-12-23T13:05:34.301Z,1128
2018-12-23T13:06:34.711Z,1128
2018-12-23T13:07:34.708Z,1076
2018-12-23T13:08:35.691Z,1044
2018-12-23T13:09:38.374Z,1028
2018-12-23T13:10:38.151Z,1028
2018-12-23T13:11:38.565Z,1028
2018-12-23T13:12:39.975Z,1032
2018-12-23T13:13:41.390Z,1012
2018-12-23T13:14:42.633Z,980
2018-12-23T13:15:43.105Z,944
2018-12-23T13:16:44.072Z,920
2018-12-23T13:17:44.734Z,912
2018-12-23T13:18:45.145Z,920
2018-12-23T13:19:45.834Z,920
2018-12-23T13:20:46.799Z,912
2018-12-23T13:21:47.212Z,892
2018-12-23T13:22:48.242Z,868
2018-12-23T13:23:48.657Z,848
2018-12-23T13:24:49.342Z,828
2018-12-23T13:25:50.033Z,804
2018-12-23T13:26:50.454Z,780
2018-12-23T13:27:51.582Z,768
2018-12-23T13:28:52.544Z,752
2018-12-23T13:29:53.234Z,740
2018-12-23T13:30:53.417Z,732
2018-12-23T13:31:54.831Z,716
2018-12-23T13:32:55.246Z,700
2018-12-23T13:33:55.929Z,684
2018-12-23T13:34:56.421Z,676
2018-12-23T13:35:57.387Z,668
2018-12-23T13:36:57.849Z,664
2018-12-23T13:37:58.106Z,668
2018-12-23T13:38:59.521Z,664
2018-12-23T13:39:59.654Z,648
2018-12-23T13:41:00.477Z,628
2018-12-23T13:42:01.512Z,604
2018-12-23T13:43:02.459Z,580
2018-12-23T13:44:03.670Z,556
2018-12-23T13:45:04.078Z,536
2018-12-23T13:46:04.489Z,524
2018-12-23T13:47:06.456Z,512
2018-12-23T13:48:06.570Z,504
2018-12-23T13:49:07.331Z,500
2018-12-23T13:50:08.025Z,496
2018-12-23T13:51:08.709Z,492
2018-12-23T13:52:10.124Z,480
2018-12-23T13:53:10.526Z,472
2018-12-23T13:54:10.764Z,460
2018-12-23T13:55:11.512Z,452
2018-12-23T13:56:12.482Z,444
2018-12-23T13:57:12.892Z,440
2018-12-23T13:58:14.265Z,432
2018-12-23T13:59:15.227Z,420
2018-12-23T14:00:15.359Z,408
2018-12-23T14:01:16.489Z,392
2018-12-23T14:02:17.206Z,376
2018-12-23T14:03:18.542Z,364
2018-12-23T14:04:18.951Z,356
2018-12-23T14:05:20.020Z,352
2018-12-23T14:06:20.756Z,348
2018-12-23T14:07:21.721Z,348
2018-12-23T14:08:21.825Z,352
2018-12-23T14:09:23.234Z,344
2018-12-23T14:10:24.931Z,336
2018-12-23T14:11:25.897Z,328
2018-12-23T14:12:26.583Z,320
2018-12-23T14:13:27.838Z,308
2018-12-23T14:14:28.527Z,304
2018-12-23T14:15:29.493Z,296
2018-12-23T14:16:30.738Z,284
2018-12-23T14:17:30.185Z,280